Time;durP1;ratioP1;P1;durP2;ratioP2;P2;SDS_P1;SDS_P2;PMS_P1;PMS_P2;Temp;Humidity;BMP_temperature;BMP_pressure;BME280_temperature;BME280_humidity;BME280_pressure;Samples;Min_cycle;Max_cycle;Signal;HPM_P1;HPM_P2
2021/10/03 14:11:09;;;;;;;10.23;4.20;;;;;;;;;;6005089;23;20748;-92
2021/10/03 14:13:41;;;;;;;7.63;3.70;;;;;;;;;;4878760;29;20040;-85
2021/10/03 14:18:43;;;;;;;8.13;4.05;;;;;;;;;;5875039;23;20031;-83
2021/10/03 14:28:57;;;;;;;7.53;4.30;;;;;;;;;;5193747;23;20088;-80
2021/10/03 14:31:23;;;;;;;9.05;3.83;;;;;;;;;;4941145;29;20090;-79
2021/10/03 14:33:50;;;;;;;7.57;4.20;;;;;;;;;;4941603;29;20552;-81
2021/10/03 14:36:16;;;;;;;5.90;3.40;;;;;;;;;;4957866;29;20074;-82
2021/10/03 14:38:42;;;;;;;5.70;3.40;;;;;;;;;;4940957;29;20078;-80
2021/10/03 14:41:08;;;;;;;7.78;4.38;;;;;;;;;;4940919;29;20031;-83
2021/10/03 14:43:35;;;;;;;8.20;3.50;;;;;;;;;;4957862;29;20031;-82
2021/10/03 14:46:01;;;;;;;12.45;3.50;;;;;;;;;;4940794;29;20472;-91
2021/10/03 14:48:27;;;;;;;8.38;4.22;;;;;;;;;;4941426;29;20090;-83
2021/10/03 14:50:54;;;;;;;7.93;3.58;;;;;;;;;;4959345;29;20079;-92
2021/10/03 14:53:21;;;;;;;7.25;3.65;;;;;;;;;;4941039;29;20027;-91
2021/10/03 14:55:47;;;;;;;5.93;3.72;;;;;;;;;;4940762;29;20090;-82
2021/10/03 14:58:14;;;;;;;8.77;3.97;;;;;;;;;;4958078;29;20039;-82
2021/10/03 15:00:40;;;;;;;5.53;3.63;;;;;;;;;;4959663;29;20027;-83
2021/10/03 15:03:06;;;;;;;6.30;4.00;;;;;;;;;;4958601;29;20461;-82
2021/10/03 15:05:32;;;;;;;9.07;3.67;;;;;;;;;;4941571;29;20042;-83
2021/10/03 15:07:58;;;;;;;6.90;4.00;;;;;;;;;;4940916;29;20064;-86
2021/10/03 15:10:24;;;;;;;8.55;3.42;;;;;;;;;;4940070;29;20425;-88
2021/10/03 15:12:50;;;;;;;8.70;4.05;;;;;;;;;;4946685;29;20030;-81
2021/10/03 15:15:17;;;;;;;9.73;4.10;;;;;;;;;;4947275;29;20458;-79
2021/10/03 15:17:43;;;;;;;7.53;3.83;;;;;;;;;;4945811;29;20043;-86
2021/10/03 15:20:10;;;;;;;6.10;3.70;;;;;;;;;;4949442;29;20469;-90
2021/10/03 15:22:36;;;;;;;6.47;3.60;;;;;;;;;;4930385;29;20453;-91
2021/10/03 15:25:03;;;;;;;11.52;4.07;;;;;;;;;;4948351;29;20496;-86
2021/10/03 15:27:29;;;;;;;7.03;3.63;;;;;;;;;;4928869;29;20031;-85
2021/10/03 15:29:55;;;;;;;6.88;3.72;;;;;;;;;;4947414;29;20044;-79
2021/10/03 15:32:21;;;;;;;6.28;3.60;;;;;;;;;;4941471;29;20032;-81
2021/10/03 15:34:48;;;;;;;6.38;3.40;;;;;;;;;;4920123;29;20020;-82
2021/10/03 15:37:14;;;;;;;7.07;3.75;;;;;;;;;;4938540;29;20036;-79
2021/10/03 15:39:40;;;;;;;10.50;5.32;;;;;;;;;;4922223;29;20024;-85
2021/10/03 15:42:06;;;;;;;8.63;4.80;;;;;;;;;;4939360;29;20039;-82
2021/10/03 15:44:32;;;;;;;6.22;3.67;;;;;;;;;;4938450;29;20068;-80
2021/10/03 15:46:59;;;;;;;6.20;3.55;;;;;;;;;;4921421;29;20086;-83
2021/10/03 15:49:25;;;;;;;6.82;3.67;;;;;;;;;;4939079;29;20032;-91
2021/10/03 15:51:51;;;;;;;9.48;3.70;;;;;;;;;;4930194;29;20047;-89
2021/10/03 15:54:17;;;;;;;6.40;3.50;;;;;;;;;;4946633;29;20023;-81
2021/10/03 15:56:44;;;;;;;8.65;4.22;;;;;;;;;;4947194;29;20472;-83
2021/10/03 15:59:10;;;;;;;7.40;4.00;;;;;;;;;;4927330;29;20070;-87
2021/10/03 16:01:38;;;;;;;5.88;3.25;;;;;;;;;;4930052;29;20441;-88
2021/10/03 16:04:04;;;;;;;6.38;3.78;;;;;;;;;;4947057;29;20027;-82
2021/10/03 16:06:31;;;;;;;8.45;4.00;;;;;;;;;;4930493;29;20083;-79
2021/10/03 16:08:58;;;;;;;6.72;3.28;;;;;;;;;;4947330;29;20037;-89
2021/10/03 16:11:24;;;;;;;7.35;3.95;;;;;;;;;;4929335;29;20397;-87
2021/10/03 16:13:50;;;;;;;15.25;3.60;;;;;;;;;;4950161;29;20027;-89
2021/10/03 16:16:17;;;;;;;12.00;4.70;;;;;;;;;;4929825;29;20035;-87
2021/10/03 16:18:44;;;;;;;20.60;3.97;;;;;;;;;;4943431;29;20030;-90
2021/10/03 16:21:10;;;;;;;6.28;3.83;;;;;;;;;;4926593;29;20027;-88
2021/10/03 16:23:36;;;;;;;5.63;3.50;;;;;;;;;;4951129;29;20058;-91
2021/10/03 16:26:03;;;;;;;6.78;3.85;;;;;;;;;;4930655;29;20373;-84
2021/10/03 16:28:31;;;;;;;12.35;4.28;;;;;;;;;;4946355;29;20043;-79
2021/10/03 16:30:58;;;;;;;8.30;3.88;;;;;;;;;;4925525;29;20067;-81
2021/10/03 16:33:24;;;;;;;9.02;4.63;;;;;;;;;;4920276;29;20118;-82
2021/10/03 16:35:51;;;;;;;9.65;3.72;;;;;;;;;;4936893;29;20445;-82
2021/10/03 16:38:17;;;;;;;7.45;4.68;;;;;;;;;;4920199;29;20037;-81
2021/10/03 16:40:43;;;;;;;10.07;4.75;;;;;;;;;;4919841;29;20099;-79
2021/10/03 16:43:10;;;;;;;7.90;4.75;;;;;;;;;;4920032;29;20493;-79
2021/10/03 16:45:37;;;;;;;7.82;4.82;;;;;;;;;;4936898;29;20114;-80
2021/10/03 16:48:04;;;;;;;10.57;4.82;;;;;;;;;;4920004;29;20035;-79
2021/10/03 16:50:30;;;;;;;12.65;4.40;;;;;;;;;;4937519;29;20086;-80
2021/10/03 16:52:57;;;;;;;10.48;4.65;;;;;;;;;;4919787;29;20031;-80
2021/10/03 16:55:25;;;;;;;10.05;5.05;;;;;;;;;;4936866;29;20075;-80
2021/10/03 16:57:55;;;;;;;12.82;5.07;;;;;;;;;;4936731;29;20059;-80
2021/10/03 17:00:21;;;;;;;8.25;4.78;;;;;;;;;;4920307;29;20027;-81
2021/10/03 17:02:47;;;;;;;9.20;5.35;;;;;;;;;;4936783;29;20032;-79
2021/10/03 17:05:14;;;;;;;7.93;4.95;;;;;;;;;;4937033;29;20462;-79
2021/10/03 17:07:41;;;;;;;7.57;4.50;;;;;;;;;;4936524;29;20047;-80
2021/10/03 17:10:08;;;;;;;9.45;4.88;;;;;;;;;;4936529;29;20027;-79
2021/10/03 17:12:35;;;;;;;8.60;5.03;;;;;;;;;;4937075;29;20075;-79
2021/10/03 17:15:03;;;;;;;12.25;5.32;;;;;;;;;;4936448;29;20102;-80
2021/10/03 17:17:33;;;;;;;8.85;5.53;;;;;;;;;;4936439;29;20062;-79
2021/10/03 17:20:00;;;;;;;9.70;5.68;;;;;;;;;;4936966;29;20023;-80
2021/10/03 17:22:26;;;;;;;10.48;5.95;;;;;;;;;;4919246;29;20035;-79
2021/10/03 17:24:53;;;;;;;12.40;6.63;;;;;;;;;;4936837;29;20466;-79
2021/10/03 17:27:19;;;;;;;11.38;5.82;;;;;;;;;;4936310;29;20024;-79
2021/10/03 17:29:45;;;;;;;11.75;6.30;;;;;;;;;;4936326;29;20052;-83
2021/10/03 17:32:12;;;;;;;9.75;6.13;;;;;;;;;;4936923;29;20024;-80
2021/10/03 17:34:39;;;;;;;10.68;6.03;;;;;;;;;;4919456;29;20409;-79
2021/10/03 17:37:07;;;;;;;9.27;5.82;;;;;;;;;;4919063;29;20560;-79
2021/10/03 17:39:35;;;;;;;11.48;6.35;;;;;;;;;;4919203;29;20047;-79
2021/10/03 17:42:02;;;;;;;10.70;6.10;;;;;;;;;;4936096;29;20027;-80
2021/10/03 17:44:28;;;;;;;8.82;5.72;;;;;;;;;;4919123;29;20501;-79
2021/10/03 17:46:54;;;;;;;9.82;6.30;;;;;;;;;;4919191;29;20057;-80
2021/10/03 17:49:20;;;;;;;9.80;5.85;;;;;;;;;;4936271;29;20051;-81
2021/10/03 17:51:48;;;;;;;9.70;5.72;;;;;;;;;;4919501;29;20032;-80
2021/10/03 17:54:14;;;;;;;12.85;5.47;;;;;;;;;;4919308;29;20024;-80
2021/10/03 17:56:41;;;;;;;10.05;6.13;;;;;;;;;;4919212;29;20036;-82
2021/10/03 17:59:07;;;;;;;9.45;5.95;;;;;;;;;;4939723;29;20082;-81
2021/10/03 18:01:33;;;;;;;10.23;6.20;;;;;;;;;;4922894;29;20128;-80
2021/10/03 18:03:59;;;;;;;10.43;6.07;;;;;;;;;;4941000;29;20051;-79
2021/10/03 18:06:25;;;;;;;10.65;6.25;;;;;;;;;;4940326;29;20075;-79
2021/10/03 18:08:51;;;;;;;13.88;6.32;;;;;;;;;;4939879;29;20083;-80
2021/10/03 18:11:17;;;;;;;11.52;6.07;;;;;;;;;;4940402;29;20036;-79
2021/10/03 18:13:43;;;;;;;10.70;6.03;;;;;;;;;;4939724;29;20605;-81
2021/10/03 18:16:14;;;;;;;11.30;6.18;;;;;;;;;;4922627;29;20110;-80
2021/10/03 18:18:40;;;;;;;11.88;6.03;;;;;;;;;;4940188;29;20036;-80
2021/10/03 18:21:07;;;;;;;12.07;6.63;;;;;;;;;;4922631;29;20031;-80
2021/10/03 18:23:34;;;;;;;10.55;6.47;;;;;;;;;;4922412;29;20041;-81
2021/10/03 18:26:00;;;;;;;14.85;6.25;;;;;;;;;;4940014;29;20024;-79
2021/10/03 18:28:26;;;;;;;15.82;6.63;;;;;;;;;;4922083;29;20056;-80
2021/10/03 18:30:52;;;;;;;11.25;6.65;;;;;;;;;;4939435;29;20023;-79
2021/10/03 18:33:19;;;;;;;11.23;6.18;;;;;;;;;;4922339;29;20035;-80
2021/10/03 18:35:45;;;;;;;14.05;6.90;;;;;;;;;;4922209;29;20500;-79
2021/10/03 18:38:12;;;;;;;10.38;6.55;;;;;;;;;;4939238;29;20035;-79
2021/10/03 18:40:38;;;;;;;14.13;6.43;;;;;;;;;;4939117;29;20042;-79
2021/10/03 18:43:05;;;;;;;8.77;6.13;;;;;;;;;;4939174;29;20032;-80
2021/10/03 18:45:31;;;;;;;10.15;5.80;;;;;;;;;;4939122;29;20040;-79
2021/10/03 18:47:58;;;;;;;10.43;6.50;;;;;;;;;;4939536;29;20042;-80
2021/10/03 18:50:24;;;;;;;13.40;6.43;;;;;;;;;;4921896;29;20040;-79
2021/10/03 18:52:51;;;;;;;11.43;6.63;;;;;;;;;;4938892;29;20059;-79
2021/10/03 18:55:17;;;;;;;11.63;6.63;;;;;;;;;;4921819;29;20036;-80
2021/10/03 18:57:44;;;;;;;14.50;6.88;;;;;;;;;;4921753;29;20040;-79
2021/10/03 19:00:11;;;;;;;11.57;6.10;;;;;;;;;;4921650;29;20024;-82
2021/10/03 19:02:37;;;;;;;12.55;6.25;;;;;;;;;;4921938;29;20425;-81
2021/10/03 19:05:04;;;;;;;10.35;6.60;;;;;;;;;;4921690;29;20491;-82
2021/10/03 19:07:30;;;;;;;10.68;6.68;;;;;;;;;;4921719;29;20031;-82
2021/10/03 19:09:57;;;;;;;10.90;6.85;;;;;;;;;;4921283;29;20432;-83
2021/10/03 19:12:23;;;;;;;9.20;6.25;;;;;;;;;;4921546;29;20119;-82
2021/10/03 19:14:50;;;;;;;10.63;7.07;;;;;;;;;;4938645;29;20054;-83
2021/10/03 19:17:16;;;;;;;12.25;7.03;;;;;;;;;;4938412;29;20486;-81
2021/10/03 19:19:43;;;;;;;12.50;6.70;;;;;;;;;;4921480;29;20034;-84
2021/10/03 19:22:09;;;;;;;15.02;7.43;;;;;;;;;;4938548;29;20055;-80
2021/10/03 19:24:35;;;;;;;11.85;6.53;;;;;;;;;;4921526;29;20393;-83
2021/10/03 19:27:02;;;;;;;11.70;7.18;;;;;;;;;;4921552;29;20079;-88
2021/10/03 19:29:29;;;;;;;11.63;7.20;;;;;;;;;;4921631;29;20138;-80
2021/10/03 19:31:56;;;;;;;11.30;7.03;;;;;;;;;;4922074;29;20103;-80
2021/10/03 19:34:22;;;;;;;15.32;6.75;;;;;;;;;;4921431;29;20028;-81
2021/10/03 19:36:49;;;;;;;14.35;7.75;;;;;;;;;;4938753;29;20115;-80
2021/10/03 19:39:15;;;;;;;12.52;7.43;;;;;;;;;;4921254;29;20378;-86
2021/10/03 19:41:42;;;;;;;14.65;7.50;;;;;;;;;;4921106;29;20027;-82
2021/10/03 19:44:09;;;;;;;12.27;7.60;;;;;;;;;;4938682;29;20032;-82
2021/10/03 19:46:35;;;;;;;11.32;7.25;;;;;;;;;;4938088;29;20035;-83
2021/10/03 19:49:02;;;;;;;12.60;6.85;;;;;;;;;;4921132;29;20040;-81
2021/10/03 19:51:29;;;;;;;11.70;7.30;;;;;;;;;;4920936;29;20034;-82
2021/10/03 19:53:55;;;;;;;12.05;7.03;;;;;;;;;;4938066;29;20124;-82
2021/10/03 19:56:22;;;;;;;12.55;7.43;;;;;;;;;;4937864;29;20433;-82
2021/10/03 19:58:49;;;;;;;10.43;7.10;;;;;;;;;;4937906;29;20039;-83
2021/10/03 20:01:16;;;;;;;13.57;7.22;;;;;;;;;;4920783;29;20489;-82
2021/10/03 20:03:42;;;;;;;11.68;7.30;;;;;;;;;;4938304;29;20354;-81
2021/10/03 20:06:08;;;;;;;12.05;7.68;;;;;;;;;;4938245;29;20369;-82
2021/10/03 20:08:35;;;;;;;11.38;7.22;;;;;;;;;;4920598;29;20031;-79
2021/10/03 20:11:01;;;;;;;13.30;8.48;;;;;;;;;;4920557;29;20031;-80
2021/10/03 20:13:28;;;;;;;14.55;8.82;;;;;;;;;;4937636;29;20513;-90
2021/10/03 20:15:54;;;;;;;11.88;7.53;;;;;;;;;;4920622;29;20031;-86
2021/10/03 20:18:21;;;;;;;13.18;7.72;;;;;;;;;;4920814;29;20548;-89
2021/10/03 20:20:47;;;;;;;12.00;7.32;;;;;;;;;;4919804;29;20485;-85
2021/10/03 20:23:14;;;;;;;12.65;7.88;;;;;;;;;;4920263;29;20028;-80
2021/10/03 20:25:41;;;;;;;11.43;7.38;;;;;;;;;;4920312;29;20118;-81
2021/10/03 20:28:07;;;;;;;13.40;8.15;;;;;;;;;;4920060;29;20043;-82
2021/10/03 20:30:34;;;;;;;15.35;7.75;;;;;;;;;;4937753;29;20039;-83
2021/10/03 20:33:01;;;;;;;13.68;7.88;;;;;;;;;;4937214;29;20035;-81
2021/10/03 20:35:27;;;;;;;11.60;7.47;;;;;;;;;;4920075;29;20043;-81
2021/10/03 20:37:54;;;;;;;13.43;7.18;;;;;;;;;;4920349;29;20039;-79
2021/10/03 20:40:20;;;;;;;13.00;8.10;;;;;;;;;;4920337;29;20477;-80
2021/10/03 20:42:47;;;;;;;12.57;6.93;;;;;;;;;;4937272;29;20119;-79
2021/10/03 20:45:14;;;;;;;12.10;7.43;;;;;;;;;;4937609;29;20478;-79
2021/10/03 20:47:40;;;;;;;15.30;7.43;;;;;;;;;;4919953;29;20032;-80
2021/10/03 20:50:12;;;;;;;12.30;7.38;;;;;;;;;;4919967;29;20551;-80
2021/10/03 20:52:39;;;;;;;12.73;7.72;;;;;;;;;;4919921;29;20024;-79
2021/10/03 20:55:06;;;;;;;14.15;8.18;;;;;;;;;;4936803;29;20027;-81
2021/10/03 20:57:32;;;;;;;12.65;6.90;;;;;;;;;;4919645;29;20036;-81
2021/10/03 20:59:59;;;;;;;12.57;6.47;;;;;;;;;;4919605;29;20385;-81
2021/10/03 21:02:25;;;;;;;14.63;8.57;;;;;;;;;;4936680;29;20029;-81
2021/10/03 21:04:52;;;;;;;11.63;6.40;;;;;;;;;;4936663;29;20028;-81
2021/10/03 21:07:18;;;;;;;16.27;7.30;;;;;;;;;;4936578;29;20028;-81
2021/10/03 21:09:44;;;;;;;15.60;7.07;;;;;;;;;;4919511;29;20079;-81
2021/10/03 21:12:11;;;;;;;11.27;6.47;;;;;;;;;;4937049;29;20108;-79
2021/10/03 21:14:38;;;;;;;11.27;6.65;;;;;;;;;;4919430;29;20454;-81
2021/10/03 21:17:05;;;;;;;15.20;7.20;;;;;;;;;;4936393;29;20044;-79
2021/10/03 21:19:31;;;;;;;14.00;5.95;;;;;;;;;;4936433;29;20031;-89
2021/10/03 21:21:57;;;;;;;11.18;6.53;;;;;;;;;;4919358;29;20400;-80
2021/10/03 21:24:23;;;;;;;13.02;6.50;;;;;;;;;;4936402;29;20034;-81
2021/10/03 21:26:50;;;;;;;10.82;5.75;;;;;;;;;;4919224;29;20042;-80
2021/10/03 21:29:17;;;;;;;9.63;5.70;;;;;;;;;;4919159;29;20047;-79
2021/10/03 21:31:43;;;;;;;18.05;6.32;;;;;;;;;;4919099;29;20024;-86
2021/10/03 21:34:10;;;;;;;11.38;6.65;;;;;;;;;;4919222;29;20104;-81
2021/10/03 21:36:36;;;;;;;11.93;6.55;;;;;;;;;;4919448;29;20043;-79
2021/10/03 21:39:03;;;;;;;10.68;6.90;;;;;;;;;;4919422;29;20051;-80
2021/10/03 21:41:29;;;;;;;10.88;6.45;;;;;;;;;;4936344;29;20457;-85
2021/10/03 21:43:55;;;;;;;8.90;5.43;;;;;;;;;;4919463;29;20110;-80
2021/10/03 21:46:21;;;;;;;10.55;5.97;;;;;;;;;;4919293;29;20027;-89
2021/10/03 21:48:48;;;;;;;10.75;6.22;;;;;;;;;;4919103;29;20593;-81
2021/10/03 21:51:14;;;;;;;12.15;5.80;;;;;;;;;;4936142;29;20038;-79
2021/10/03 21:53:40;;;;;;;11.25;6.30;;;;;;;;;;4919009;29;20030;-81
2021/10/03 21:56:06;;;;;;;8.07;4.82;;;;;;;;;;4918860;29;20031;-81
2021/10/03 21:58:33;;;;;;;8.82;5.72;;;;;;;;;;4919078;29;20101;-81
2021/10/03 22:01:03;;;;;;;9.73;4.70;;;;;;;;;;4936001;29;20099;-80
2021/10/03 22:03:30;;;;;;;10.35;5.50;;;;;;;;;;4919002;29;20075;-80
2021/10/03 22:05:57;;;;;;;10.63;6.30;;;;;;;;;;4918919;29;20107;-81
2021/10/03 22:08:23;;;;;;;12.75;6.70;;;;;;;;;;4935926;29;20031;-80
2021/10/03 22:10:50;;;;;;;11.60;5.85;;;;;;;;;;4918873;29;20032;-81
2021/10/03 22:13:16;;;;;;;10.52;6.20;;;;;;;;;;4936395;29;20389;-80
2021/10/03 22:15:42;;;;;;;13.25;6.03;;;;;;;;;;4918901;29;20019;-81
2021/10/03 22:18:10;;;;;;;10.90;5.50;;;;;;;;;;4935836;29;20090;-81
2021/10/03 22:20:37;;;;;;;10.05;5.53;;;;;;;;;;4918730;29;20024;-81
2021/10/03 22:23:04;;;;;;;12.20;5.60;;;;;;;;;;4935901;29;20129;-81
2021/10/03 22:25:31;;;;;;;10.48;5.75;;;;;;;;;;4936309;29;20031;-80
2021/10/03 22:27:57;;;;;;;8.98;5.35;;;;;;;;;;4918481;29;20071;-80
2021/10/03 22:30:24;;;;;;;10.88;5.75;;;;;;;;;;4918835;29;20046;-80
2021/10/03 22:32:51;;;;;;;13.23;6.00;;;;;;;;;;4918720;29;20087;-79
2021/10/03 22:35:17;;;;;;;11.75;6.60;;;;;;;;;;4935762;29;20027;-81
2021/10/03 22:37:43;;;;;;;9.70;5.68;;;;;;;;;;4918607;29;20067;-82
2021/10/03 22:40:11;;;;;;;12.32;6.57;;;;;;;;;;4935829;29;20033;-81
2021/10/03 22:42:38;;;;;;;10.68;6.25;;;;;;;;;;4918518;29;20063;-81
2021/10/03 22:45:06;;;;;;;9.75;6.00;;;;;;;;;;4937933;29;20024;-81
2021/10/03 22:47:32;;;;;;;12.77;5.80;;;;;;;;;;4939147;29;20031;-81
2021/10/03 22:49:59;;;;;;;11.55;6.40;;;;;;;;;;4939076;29;20079;-81
2021/10/03 22:52:25;;;;;;;13.50;5.88;;;;;;;;;;4939135;29;20031;-80
2021/10/03 22:54:51;;;;;;;13.48;6.60;;;;;;;;;;4921967;29;20473;-81
2021/10/03 22:57:18;;;;;;;10.75;5.75;;;;;;;;;;4921885;29;20071;-79
2021/10/03 22:59:45;;;;;;;12.45;7.45;;;;;;;;;;4921895;29;20144;-81
2021/10/03 23:02:12;;;;;;;13.18;5.65;;;;;;;;;;4938849;29;20031;-81
2021/10/03 23:04:39;;;;;;;9.23;5.78;;;;;;;;;;4938834;29;20465;-81
2021/10/03 23:07:05;;;;;;;11.25;6.50;;;;;;;;;;4938722;29;20031;-81
2021/10/03 23:09:33;;;;;;;10.50;6.15;;;;;;;;;;4938814;29;20027;-80
2021/10/03 23:12:03;;;;;;;12.23;5.25;;;;;;;;;;4921654;29;20103;-81
2021/10/03 23:14:30;;;;;;;13.27;6.53;;;;;;;;;;4938758;29;20023;-81
2021/10/03 23:16:56;;;;;;;10.38;6.30;;;;;;;;;;4938625;29;20167;-81
2021/10/03 23:19:23;;;;;;;11.85;6.00;;;;;;;;;;4938540;29;20027;-81
2021/10/03 23:21:50;;;;;;;9.63;5.25;;;;;;;;;;4938479;29;20477;-81
2021/10/03 23:24:17;;;;;;;10.48;5.43;;;;;;;;;;4921532;29;20027;-80
2021/10/03 23:26:43;;;;;;;15.23;7.20;;;;;;;;;;4938990;29;20079;-81
2021/10/03 23:29:09;;;;;;;8.07;5.10;;;;;;;;;;4938220;29;20052;-81
2021/10/03 23:31:36;;;;;;;15.80;6.45;;;;;;;;;;4921341;29;20528;-81
2021/10/03 23:34:03;;;;;;;12.98;6.38;;;;;;;;;;4921317;29;20548;-81
2021/10/03 23:36:30;;;;;;;11.88;6.25;;;;;;;;;;4921185;29;20028;-81
2021/10/03 23:38:56;;;;;;;11.25;5.70;;;;;;;;;;4938784;29;20528;-81
2021/10/03 23:41:23;;;;;;;10.95;6.15;;;;;;;;;;4938685;29;20488;-81
2021/10/03 23:43:50;;;;;;;9.93;5.18;;;;;;;;;;4921036;29;20020;-81
2021/10/03 23:46:19;;;;;;;10.25;6.28;;;;;;;;;;4938091;29;20028;-81
2021/10/03 23:48:46;;;;;;;11.10;6.00;;;;;;;;;;4921002;29;20114;-81
2021/10/03 23:51:13;;;;;;;11.27;5.72;;;;;;;;;;4938078;29;20027;-79
2021/10/03 23:53:39;;;;;;;11.10;6.40;;;;;;;;;;4920935;29;20051;-81
2021/10/03 23:56:05;;;;;;;12.95;5.63;;;;;;;;;;4936753;29;20036;-79
2021/10/03 23:58:32;;;;;;;11.02;5.93;;;;;;;;;;4920840;29;20122;-81
